Time;durP1;ratioP1;P1;durP2;ratioP2;P2;SDS_P1;SDS_P2;PMS_P1;PMS_P2;Temp;Humidity;BMP_temperature;BMP_pressure;BME280_temperature;BME280_humidity;BME280_pressure;Samples;Min_cycle;Max_cycle;Signal;HPM_P1;HPM_P2
2022/11/15 00:00:35;;;;;;;188.47;90.80;;;;;;;-141.28;100.00;50440.13;5115164;28;21045;-75
2022/11/15 00:03:02;;;;;;;182.70;89.53;;;;;;;-141.28;100.00;50467.59;5115766;28;20445;-75
2022/11/15 00:05:30;;;;;;;173.23;84.43;;;;;;;-141.28;100.00;50463.69;5114153;28;20511;-75
2022/11/15 00:07:59;;;;;;;184.50;87.20;;;;;;;-141.28;100.00;50467.59;5115460;28;20440;-77
2022/11/15 00:10:26;;;;;;;173.10;81.57;;;;;;;-141.28;100.00;50359.66;5115600;28;20506;-76
2022/11/15 00:12:53;;;;;;;173.93;81.27;;;;;;;-141.28;100.00;50542.19;5119859;28;20986;-76
2022/11/15 00:15:20;;;;;;;184.87;84.07;;;;;;;-141.28;100.00;50542.19;5116806;28;20452;-76
2022/11/15 00:17:49;;;;;;;171.97;81.70;;;;;;;-141.28;100.00;50516.69;5115197;28;21010;-77
2022/11/15 00:20:18;;;;;;;168.73;76.80;;;;;;;-141.28;100.00;50563.78;5115889;28;20441;-80
2022/11/15 00:22:45;;;;;;;171.53;75.93;;;;;;;-141.28;100.00;50561.81;5115645;28;20460;-79
2022/11/15 00:25:15;;;;;;;161.73;73.90;;;;;;;-141.28;100.00;50559.88;5115563;28;20455;-78
2022/11/15 00:27:42;;;;;;;154.83;72.30;;;;;;;-141.28;100.00;50577.53;5116357;28;20866;-76
2022/11/15 00:30:10;;;;;;;155.17;71.57;;;;;;;-141.28;100.00;50577.53;5115859;28;21103;-73
2022/11/15 00:32:37;;;;;;;148.50;68.40;;;;;;;-141.28;100.00;50593.22;5115149;28;20464;-75
2022/11/15 00:35:05;;;;;;;141.87;66.57;;;;;;;-141.28;100.00;50605.00;5115607;28;20449;-74
2022/11/15 00:37:31;;;;;;;143.97;67.53;;;;;;;-141.28;100.00;50640.34;5113337;28;21098;-75
2022/11/15 00:39:59;;;;;;;142.57;67.17;;;;;;;-141.28;100.00;50502.94;5114979;28;20953;-76
2022/11/15 00:42:27;;;;;;;157.43;67.07;;;;;;;-141.28;100.00;50624.63;5115156;28;20900;-79
2022/11/15 00:44:55;;;;;;;140.23;64.93;;;;;;;-141.28;100.00;50652.13;5114318;28;20452;-76
2022/11/15 00:47:22;;;;;;;149.30;67.97;;;;;;;-141.28;100.00;50663.91;5115448;28;20816;-77
2022/11/15 00:49:49;;;;;;;146.57;69.27;;;;;;;-141.28;100.00;50658.00;5114625;28;20453;-75
2022/11/15 00:52:16;;;;;;;149.83;67.73;;;;;;;-141.28;100.00;50683.53;5114889;28;20444;-78
2022/11/15 00:54:42;;;;;;;135.77;65.17;;;;;;;-141.28;100.00;50663.91;5114580;28;21041;-75
2022/11/15 00:57:10;;;;;;;139.83;69.93;;;;;;;-141.28;100.00;50726.72;5114089;28;20472;-76
2022/11/15 00:59:38;;;;;;;151.50;70.70;;;;;;;-141.28;100.00;50693.34;5113492;28;20529;-78
2022/11/15 01:02:05;;;;;;;145.93;70.80;;;;;;;-141.28;100.00;50712.97;5114369;28;20437;-76
2022/11/15 01:04:32;;;;;;;157.27;71.27;;;;;;;-141.28;100.00;50726.72;5115114;28;20881;-78
2022/11/15 01:06:59;;;;;;;162.60;69.57;;;;;;;-141.28;100.00;50767.94;5114531;28;20955;-75
2022/11/15 01:09:26;;;;;;;153.93;68.40;;;;;;;-141.28;100.00;50793.47;5114889;28;20441;-75
2022/11/15 01:11:53;;;;;;;142.97;69.43;;;;;;;-141.28;100.00;50789.53;5114809;28;20990;-75
2022/11/15 01:14:20;;;;;;;141.80;66.43;;;;;;;-141.28;100.00;50785.59;5117416;28;20452;-74
2022/11/15 01:16:48;;;;;;;148.77;69.30;;;;;;;-141.28;100.00;50703.16;5110867;28;20481;-73
2022/11/15 01:19:15;;;;;;;140.73;67.57;;;;;;;-141.28;100.00;50742.41;5122592;28;20465;-73
2022/11/15 01:21:42;;;;;;;139.07;66.10;;;;;;;-141.28;100.00;50483.31;5125981;28;20451;-74
2022/11/15 01:24:14;;;;;;;148.63;66.97;;;;;;;-141.28;100.00;50750.28;5120791;28;20445;-78
2022/11/15 01:26:40;;;;;;;147.10;68.57;;;;;;;-141.28;100.00;50722.78;5115550;28;20452;-74
2022/11/15 01:29:07;;;;;;;145.67;67.27;;;;;;;-141.28;100.00;50781.69;5114526;28;20940;-75
2022/11/15 01:31:34;;;;;;;139.47;65.40;;;;;;;-141.28;100.00;50785.59;5114405;28;20907;-75
2022/11/15 01:34:03;;;;;;;146.13;67.00;;;;;;;-141.28;100.00;50797.38;5113605;28;20445;-77
2022/11/15 01:36:29;;;;;;;146.93;70.23;;;;;;;-141.28;100.00;50430.31;5113517;28;20954;-75
2022/11/15 01:38:57;;;;;;;163.17;71.27;;;;;;;-141.28;100.00;50813.09;5100105;28;20449;-76
2022/11/15 01:41:26;;;;;;;143.27;65.50;;;;;;;-141.28;100.00;50834.69;5112554;28;20448;-74
2022/11/15 01:43:54;;;;;;;149.80;67.67;;;;;;;-141.28;100.00;50813.09;5113850;28;20440;-75
2022/11/15 01:46:29;;;;;;;140.63;64.90;;;;;;;-141.28;100.00;50797.38;5114784;28;20452;-74
2022/11/15 01:49:00;;;;;;;151.20;68.00;;;;;;;-141.28;100.00;50789.53;5115428;28;20564;-74
2022/11/15 01:51:33;;;;;;;136.67;62.57;;;;;;;-141.28;100.00;50799.34;5120320;28;20474;-75
2022/11/15 01:54:05;;;;;;;132.53;61.30;;;;;;;-141.28;100.00;50767.94;5122745;28;20453;-75
2022/11/15 01:56:44;;;;;;;131.70;58.70;;;;;;;-141.28;100.00;50781.69;5117903;28;20490;-76
2022/11/15 01:59:12;;;;;;;130.57;57.57;;;;;;;-141.28;100.00;50785.59;5102182;28;20440;-75
2022/11/15 02:01:39;;;;;;;121.80;55.93;;;;;;;-141.28;100.00;50722.78;5114445;28;20484;-75
2022/11/15 02:04:13;;;;;;;111.57;53.33;;;;;;;-141.28;100.00;50632.50;5113576;28;20471;-75
2022/11/15 02:06:44;;;;;;;129.10;53.83;;;;;;;-141.28;100.00;50781.69;5113412;28;20460;-77
2022/11/15 02:09:13;;;;;;;115.47;53.93;;;;;;;-141.28;100.00;50824.88;5113473;28;20444;-78
2022/11/15 02:11:40;;;;;;;117.27;53.90;;;;;;;-141.28;100.00;50824.88;5112580;28;20533;-77
2022/11/15 02:14:09;;;;;;;127.73;54.70;;;;;;;-141.28;100.00;50491.16;5113165;28;20547;-75
2022/11/15 02:16:45;;;;;;;116.13;55.77;;;;;;;-141.28;100.00;50868.06;5112720;28;20517;-78
2022/11/15 02:19:29;;;;;;;118.53;55.40;;;;;;;-141.28;100.00;50840.56;5113363;28;20484;-76
2022/11/15 02:22:12;;;;;;;108.97;53.03;;;;;;;-141.28;100.00;50785.59;5113495;28;20465;-78
2022/11/15 02:24:56;;;;;;;103.47;49.83;;;;;;;-141.28;100.00;50797.38;5113008;28;20523;-75
2022/11/15 02:27:52;;;;;;;107.70;50.60;;;;;;;-141.28;100.00;50728.69;5108544;28;20835;-75
2022/11/15 02:30:24;;;;;;;124.33;50.13;;;;;;;-141.28;100.00;50789.53;5107819;28;20502;-75
2022/11/15 02:32:56;;;;;;;118.53;50.60;;;;;;;-141.28;100.00;50860.19;5113051;28;20448;-75
2022/11/15 02:35:31;;;;;;;128.40;52.60;;;;;;;-141.28;100.00;50907.31;5113091;28;20441;-75
2022/11/15 02:38:01;;;;;;;136.23;52.10;;;;;;;-141.28;100.00;50979.97;5112875;28;20479;-74
2022/11/15 02:40:39;;;;;;;129.83;49.93;;;;;;;-141.28;100.00;51001.56;5111771;28;20498;-74
2022/11/15 02:46:03;;;;;;;122.07;44.60;;;;;;;-141.28;100.00;51001.56;5113082;28;20815;-75
2022/11/15 02:48:32;;;;;;;132.03;43.87;;;;;;;-141.28;100.00;50946.59;5112344;28;20440;-80
2022/11/15 02:51:02;;;;;;;103.27;41.67;;;;;;;-141.28;100.00;51105.59;5114934;28;20456;-75
2022/11/15 02:53:29;;;;;;;149.10;46.13;;;;;;;-141.28;100.00;51158.59;5116674;28;20453;-73
2022/11/15 02:55:57;;;;;;;100.70;42.23;;;;;;;-141.28;100.00;51201.81;5115522;28;20506;-73
2022/11/15 02:58:49;;;;;;;117.80;45.93;;;;;;;-141.28;100.00;51158.59;5116229;28;20489;-74
2022/11/15 03:01:27;;;;;;;120.67;46.60;;;;;;;-141.28;100.00;51105.59;5112829;28;20468;-76
2022/11/15 03:04:04;;;;;;;201.17;47.83;;;;;;;-141.28;100.00;51219.47;5112081;28;20456;-79
2022/11/15 03:06:37;;;;;;;124.73;45.50;;;;;;;-141.28;100.00;51193.94;5111912;28;20958;-78
2022/11/15 03:09:09;;;;;;;173.77;47.70;;;;;;;-141.28;100.00;51182.16;5102950;28;20525;-77
2022/11/15 03:11:42;;;;;;;176.13;50.17;;;;;;;-141.28;100.00;51221.44;5113012;28;20502;-79
2022/11/15 03:14:20;;;;;;;152.63;46.37;;;;;;;-141.28;100.00;51241.06;5112265;28;20471;-76
2022/11/15 03:16:55;;;;;;;195.30;48.70;;;;;;;-141.28;100.00;51195.91;5112055;28;20459;-75
2022/11/15 03:19:30;;;;;;;164.23;46.07;;;;;;;-141.28;100.00;51239.09;5112673;28;20467;-75
2022/11/15 03:22:00;;;;;;;162.57;44.63;;;;;;;-141.28;100.00;51174.31;5111616;28;20437;-75
2022/11/15 03:24:30;;;;;;;159.23;48.97;;;;;;;-141.28;100.00;51209.66;5112362;28;20524;-76
2022/11/15 03:27:00;;;;;;;112.73;48.10;;;;;;;-141.28;100.00;51142.91;5111841;28;20626;-77
2022/11/15 03:29:31;;;;;;;180.80;49.73;;;;;;;-141.28;100.00;51150.75;5112192;28;20444;-78
2022/11/15 03:32:04;;;;;;;148.87;50.10;;;;;;;-141.28;100.00;51186.09;5113567;28;20452;-74
2022/11/15 03:34:36;;;;;;;158.00;47.73;;;;;;;-141.28;100.00;51197.88;5113240;28;20433;-75
2022/11/15 03:37:03;;;;;;;140.07;48.00;;;;;;;-141.28;100.00;51186.09;5111417;28;20452;-76
2022/11/15 03:39:30;;;;;;;191.43;51.70;;;;;;;-141.28;100.00;51166.47;5111618;28;20441;-75
2022/11/15 03:42:08;;;;;;;152.50;50.00;;;;;;;-141.28;100.00;51168.44;5110140;28;20456;-77
2022/11/15 03:44:41;;;;;;;184.50;52.87;;;;;;;-141.28;100.00;51129.16;5112278;28;20448;-76
2022/11/15 03:47:13;;;;;;;162.77;54.60;;;;;;;-141.28;100.00;51046.69;5099073;28;20502;-75
2022/11/15 03:49:45;;;;;;;188.00;53.30;;;;;;;-141.28;100.00;51048.66;5111721;28;20444;-75
2022/11/15 03:52:12;;;;;;;183.00;55.60;;;;;;;-141.28;100.00;50956.41;5112049;28;20867;-76
2022/11/15 03:54:49;;;;;;;222.00;53.60;;;;;;;-141.28;100.00;50901.44;5111423;28;20808;-77
2022/11/15 03:57:17;;;;;;;239.00;53.17;;;;;;;-141.28;100.00;50870.03;5111797;28;20440;-79
2022/11/15 03:59:44;;;;;;;247.47;51.93;;;;;;;-141.28;100.00;50781.69;5097545;28;20459;-76
2022/11/15 04:02:14;;;;;;;229.70;50.67;;;;;;;-141.28;100.00;50844.50;5111696;28;20449;-74
2022/11/15 04:04:42;;;;;;;263.17;50.47;;;;;;;-141.28;100.00;50793.47;5111479;28;20449;-74
2022/11/15 04:07:10;;;;;;;247.17;51.57;;;;;;;-141.28;100.00;50608.94;5112396;28;20444;-76
2022/11/15 04:10:01;;;;;;;247.83;49.97;;;;;;;-141.28;100.00;50781.69;5111348;28;20509;-74
2022/11/15 04:12:30;;;;;;;161.70;46.67;;;;;;;-141.28;100.00;50601.09;5110870;28;20466;-76
2022/11/15 04:15:07;;;;;;;143.70;44.57;;;;;;;-141.28;100.00;50585.38;5111885;28;20513;-78
2022/11/15 04:17:38;;;;;;;154.83;45.50;;;;;;;-141.28;100.00;50487.25;5111145;28;20551;-80
2022/11/15 04:25:37;;;;;;;198.47;47.77;;;;;;;-141.28;100.00;50220.28;5112028;28;21083;-73
2022/11/15 04:28:04;;;;;;;150.93;46.87;;;;;;;-141.28;100.00;50218.34;5114697;28;20453;-78
2022/11/15 04:30:31;;;;;;;142.17;45.20;;;;;;;-141.28;100.00;50124.13;5111471;28;20865;-76
2022/11/15 04:33:01;;;;;;;163.87;49.67;;;;;;;-141.28;100.00;49988.69;5112435;28;20820;-75
2022/11/15 04:35:28;;;;;;;164.63;43.57;;;;;;;-141.28;100.00;49890.56;5114992;28;20440;-74
2022/11/15 04:37:57;;;;;;;143.93;43.40;;;;;;;-141.28;100.00;49827.78;5114997;28;20476;-76
2022/11/15 04:40:24;;;;;;;137.57;44.27;;;;;;;-141.28;100.00;49741.44;5113973;28;20935;-76
2022/11/15 04:42:52;;;;;;;174.07;43.63;;;;;;;-141.28;100.00;49682.56;5114975;28;20614;-75
2022/11/15 04:45:19;;;;;;;146.00;42.87;;;;;;;-141.28;100.00;49635.47;5115434;28;20452;-75
2022/11/15 04:47:46;;;;;;;243.20;44.13;;;;;;;-141.28;100.00;49588.34;5115221;28;20452;-74
2022/11/15 04:50:16;;;;;;;122.37;43.10;;;;;;;-141.28;100.00;49545.19;5114969;28;20900;-77
2022/11/15 04:52:50;;;;;;;121.87;39.80;;;;;;;-141.28;100.00;49505.94;5114512;28;20453;-75
2022/11/15 04:55:17;;;;;;;149.00;42.20;;;;;;;-141.28;100.00;49254.78;5103044;28;20472;-75
2022/11/15 04:57:46;;;;;;;105.03;41.23;;;;;;;-141.28;100.00;49431.38;5115239;28;20488;-75
2022/11/15 05:00:17;;;;;;;126.23;43.27;;;;;;;-141.28;100.00;49398.03;5114959;28;20463;-75
2022/11/15 05:05:30;;;;;;;170.37;43.37;;;;;;;-141.28;100.00;49278.31;5117867;28;20428;-76
2022/11/15 05:07:57;;;;;;;144.87;41.20;;;;;;;-141.28;100.00;49250.84;5115465;28;20889;-74
2022/11/15 05:10:24;;;;;;;223.00;43.37;;;;;;;-141.28;100.00;49258.69;5115686;28;20915;-76
2022/11/15 05:12:51;;;;;;;112.43;40.40;;;;;;;-141.28;100.00;49203.75;5114174;28;20465;-75
2022/11/15 05:15:18;;;;;;;105.93;38.70;;;;;;;-141.28;100.00;49199.84;5114028;28;20835;-75
2022/11/15 05:17:45;;;;;;;110.27;40.10;;;;;;;-141.28;100.00;49184.13;5113785;28;20553;-77
2022/11/15 05:20:14;;;;;;;116.43;38.47;;;;;;;-141.28;100.00;49219.47;5114557;28;20452;-76
2022/11/15 05:22:42;;;;;;;122.03;38.27;;;;;;;-141.28;100.00;49195.91;5113283;28;20498;-76
2022/11/15 05:25:10;;;;;;;221.10;45.97;;;;;;;-141.28;100.00;49188.06;5114000;28;20453;-74
2022/11/15 05:27:37;;;;;;;136.20;39.63;;;;;;;-141.28;100.00;49195.91;5114120;28;20874;-75
2022/11/15 05:30:04;;;;;;;218.07;41.37;;;;;;;-141.28;100.00;49199.84;5113988;28;20445;-75
2022/11/15 05:32:31;;;;;;;209.07;44.33;;;;;;;-141.28;100.00;49188.06;5101682;28;20457;-80
2022/11/15 05:34:59;;;;;;;158.37;43.90;;;;;;;-141.28;100.00;49184.13;5113650;28;20558;-74
2022/11/15 05:37:26;;;;;;;137.00;42.47;;;;;;;-141.28;100.00;49180.22;5113981;28;20445;-76
2022/11/15 05:39:55;;;;;;;141.40;42.30;;;;;;;-141.28;100.00;49133.13;5112785;28;20452;-77
2022/11/15 05:42:22;;;;;;;140.30;41.97;;;;;;;-141.28;100.00;49154.72;5101644;28;20439;-75
2022/11/15 05:44:51;;;;;;;131.03;41.10;;;;;;;-141.28;100.00;49131.16;5115220;28;20989;-74
2022/11/15 05:47:22;;;;;;;164.17;41.77;;;;;;;-141.28;100.00;49137.06;5114834;28;20544;-75
2022/11/15 05:49:50;;;;;;;118.53;41.77;;;;;;;-141.28;100.00;49119.38;5113585;28;20503;-77
2022/11/15 05:52:21;;;;;;;146.87;41.93;;;;;;;-141.28;100.00;49142.94;5113580;28;20453;-74
2022/11/15 05:54:48;;;;;;;156.67;43.93;;;;;;;-141.28;100.00;49117.44;5113751;28;20888;-74
2022/11/15 05:57:17;;;;;;;126.60;38.03;;;;;;;-141.28;100.00;49093.88;5113388;28;20893;-74
2022/11/15 05:59:44;;;;;;;185.17;40.83;;;;;;;-141.28;100.00;49127.25;5114289;28;20480;-74
2022/11/15 06:02:12;;;;;;;112.93;39.73;;;;;;;-141.28;100.00;49099.78;5113990;28;20453;-75
2022/11/15 06:04:39;;;;;;;122.77;38.47;;;;;;;-141.28;100.00;49117.44;5113705;28;20813;-78
2022/11/15 06:07:06;;;;;;;117.30;39.80;;;;;;;-141.28;100.00;49101.72;5113111;28;20951;-74
2022/11/15 06:09:33;;;;;;;135.43;40.83;;;;;;;-141.28;100.00;49088.00;5112950;28;20445;-77
2022/11/15 06:12:00;;;;;;;122.90;42.20;;;;;;;-141.28;100.00;49093.88;5112839;28;20986;-75
2022/11/15 06:14:29;;;;;;;139.37;42.33;;;;;;;-141.28;100.00;49082.13;5112977;28;20452;-74
2022/11/15 06:16:57;;;;;;;119.37;41.60;;;;;;;-141.28;100.00;49074.25;5112936;28;20829;-78
2022/11/15 06:19:24;;;;;;;111.23;39.43;;;;;;;-141.28;100.00;49078.19;5112833;28;20504;-76
2022/11/15 06:21:51;;;;;;;94.80;34.33;;;;;;;-141.28;100.00;49066.41;5113261;28;20526;-76
2022/11/15 06:24:19;;;;;;;102.07;34.87;;;;;;;-141.28;100.00;49042.88;5112902;28;20448;-77
2022/11/15 06:26:46;;;;;;;98.10;35.30;;;;;;;-141.28;100.00;49029.13;5113258;28;20506;-77
2022/11/15 06:29:14;;;;;;;89.90;33.13;;;;;;;-141.28;100.00;49054.66;5112748;28;20445;-76
2022/11/15 06:31:42;;;;;;;84.93;31.20;;;;;;;-141.28;100.00;49035.03;5112817;28;20562;-76
2022/11/15 06:34:09;;;;;;;88.07;34.03;;;;;;;-141.28;100.00;49013.44;5112305;28;20437;-76
2022/11/15 06:36:36;;;;;;;119.37;39.97;;;;;;;-141.28;100.00;48991.84;5112700;28;20845;-76
2022/11/15 06:39:05;;;;;;;116.60;40.13;;;;;;;-141.28;100.00;48974.19;5111725;28;20480;-76
2022/11/15 06:41:36;;;;;;;90.37;31.13;;;;;;;-141.28;100.00;48929.06;5111183;28;20440;-74
2022/11/15 06:44:03;;;;;;;83.67;29.87;;;;;;;-141.28;100.00;48934.97;5112464;28;20572;-77
2022/11/15 06:46:30;;;;;;;80.30;29.73;;;;;;;-141.28;100.00;48938.88;5112516;28;20872;-75
2022/11/15 06:48:58;;;;;;;68.17;27.20;;;;;;;-141.28;100.00;48862.38;5112813;28;20493;-75
2022/11/15 06:51:25;;;;;;;81.57;28.93;;;;;;;-141.28;100.00;48936.91;5116172;28;20506;-75
2022/11/15 06:53:52;;;;;;;60.53;25.37;;;;;;;-141.28;100.00;48984.00;5115115;28;20441;-74
2022/11/15 06:56:20;;;;;;;67.30;26.13;;;;;;;-141.28;100.00;48968.31;5111379;28;20452;-75
2022/11/15 06:58:47;;;;;;;69.07;25.80;;;;;;;-141.28;100.00;48954.59;5112734;28;20563;-76
2022/11/15 07:01:14;;;;;;;58.97;24.33;;;;;;;-141.28;100.00;48944.78;5112410;28;20455;-77
2022/11/15 07:03:43;;;;;;;61.03;24.13;;;;;;;-141.28;100.00;48956.53;5115363;28;20476;-75
2022/11/15 07:06:11;;;;;;;47.30;19.60;;;;;;;-141.28;100.00;48956.53;5112360;28;20452;-77
2022/11/15 07:08:38;;;;;;;48.13;18.47;;;;;;;-141.28;100.00;48991.84;5112146;28;20494;-75
2022/11/15 07:11:07;;;;;;;38.17;16.63;;;;;;;-141.28;100.00;48995.78;5111702;28;20601;-74
2022/11/15 07:13:37;;;;;;;32.13;16.27;;;;;;;-141.28;100.00;48934.97;5111976;28;20534;-76
2022/11/15 07:16:05;;;;;;;39.70;17.73;;;;;;;-141.28;100.00;49058.56;5111149;28;20578;-77
2022/11/15 07:18:34;;;;;;;46.83;20.07;;;;;;;-141.28;100.00;49107.63;5112193;28;21001;-74
2022/11/15 07:21:03;;;;;;;35.87;17.13;;;;;;;-141.28;100.00;49113.50;5098981;28;20437;-77
2022/11/15 07:23:31;;;;;;;33.13;17.53;;;;;;;-141.28;100.00;49113.50;5111495;28;20920;-75
2022/11/15 07:26:00;;;;;;;39.70;18.57;;;;;;;-141.28;100.00;49133.13;5111927;28;20449;-76
2022/11/15 07:28:28;;;;;;;37.43;18.00;;;;;;;-141.28;100.00;49152.75;5111889;28;20449;-75
2022/11/15 07:30:56;;;;;;;36.63;18.23;;;;;;;-141.28;100.00;49164.53;5112218;28;20509;-78
2022/11/15 07:33:23;;;;;;;37.10;17.40;;;;;;;-141.28;100.00;49192.00;5116041;28;20517;-76
2022/11/15 07:35:50;;;;;;;35.67;19.03;;;;;;;-141.28;100.00;49129.19;5113160;28;20445;-77
2022/11/15 07:38:19;;;;;;;45.70;21.10;;;;;;;-141.28;100.00;49219.47;5111470;28;20464;-75
2022/11/15 07:40:48;;;;;;;46.70;19.93;;;;;;;-141.28;100.00;49199.84;5111845;28;20444;-75
2022/11/15 07:43:15;;;;;;;41.27;19.00;;;;;;;-141.28;100.00;49195.91;5110987;28;20441;-77
2022/11/15 07:45:43;;;;;;;48.00;20.13;;;;;;;-141.28;100.00;49199.84;5111413;28;21028;-78
2022/11/15 07:48:10;;;;;;;42.80;20.17;;;;;;;-141.28;100.00;49203.75;5111428;28;20518;-76
2022/11/15 07:50:42;;;;;;;38.43;18.87;;;;;;;-141.28;100.00;49223.38;5111605;28;20457;-76
2022/11/15 07:53:11;;;;;;;38.00;19.03;;;;;;;-141.28;100.00;49223.38;5111308;28;20524;-76
2022/11/15 07:55:42;;;;;;;30.90;16.53;;;;;;;-141.28;100.00;49227.31;5111437;28;21035;-79
2022/11/15 07:58:12;;;;;;;40.40;18.90;;;;;;;-141.28;100.00;49115.47;5110956;28;20437;-75
2022/11/15 08:00:39;;;;;;;38.40;19.07;;;;;;;-141.28;100.00;49205.72;5111787;28;20440;-77
2022/11/15 08:03:07;;;;;;;47.37;18.17;;;;;;;-141.28;100.00;49211.59;5111057;28;20441;-74
2022/11/15 08:05:35;;;;;;;35.97;18.10;;;;;;;-141.28;100.00;49221.41;5111225;28;20445;-78
2022/11/15 08:08:04;;;;;;;44.70;18.97;;;;;;;-141.28;100.00;49246.94;5111372;28;20505;-74
2022/11/15 08:10:32;;;;;;;39.53;19.93;;;;;;;-141.28;100.00;49223.38;5114195;28;20874;-76
2022/11/15 08:12:59;;;;;;;39.90;19.33;;;;;;;-141.28;100.00;49258.69;5103416;28;20472;-75
2022/11/15 08:15:28;;;;;;;43.17;22.80;;;;;;;-141.28;100.00;49258.69;5116111;28;20453;-74
2022/11/15 08:17:56;;;;;;;45.60;21.87;;;;;;;-141.28;100.00;49282.25;5115735;28;20963;-75
2022/11/15 08:20:24;;;;;;;49.30;22.03;;;;;;;-141.28;100.00;49305.78;5115916;28;20484;-78
2022/11/15 08:22:51;;;;;;;44.77;23.20;;;;;;;-141.28;100.00;49309.72;5108446;28;20449;-75
2022/11/15 08:25:18;;;;;;;47.20;23.17;;;;;;;-141.28;100.00;49303.84;5118128;28;20517;-76
2022/11/15 08:27:45;;;;;;;43.63;23.23;;;;;;;-141.28;100.00;49309.72;5122686;28;20443;-76
2022/11/15 08:30:13;;;;;;;45.17;23.00;;;;;;;-141.28;100.00;49140.97;5118726;28;20517;-77
2022/11/15 08:32:42;;;;;;;50.03;23.30;;;;;;;-141.28;100.00;49301.88;5123621;28;20436;-78
2022/11/15 08:35:09;;;;;;;51.67;25.73;;;;;;;-141.28;100.00;49258.69;5131649;28;20465;-76
2022/11/15 08:37:36;;;;;;;47.33;24.43;;;;;;;-141.28;100.00;49323.44;5126830;28;20467;-76
2022/11/15 08:40:05;;;;;;;43.90;22.57;;;;;;;-141.28;100.00;49290.09;5113889;28;20488;-78
2022/11/15 08:42:32;;;;;;;46.43;25.10;;;;;;;-141.28;100.00;49278.31;5115374;28;20474;-75
2022/11/15 08:44:59;;;;;;;49.40;26.17;;;;;;;-141.28;100.00;49278.31;5115227;28;20447;-77
2022/11/15 08:47:26;;;;;;;54.30;27.43;;;;;;;-141.28;100.00;49307.75;5115214;28;20441;-77
2022/11/15 08:49:56;;;;;;;51.70;26.73;;;;;;;-141.28;100.00;49301.88;5114556;28;20870;-76
2022/11/15 08:52:23;;;;;;;48.63;24.67;;;;;;;-141.28;100.00;49309.72;5115043;28;20527;-76
2022/11/15 08:54:50;;;;;;;50.50;26.47;;;;;;;-141.28;100.00;49321.50;5116251;28;20452;-75
2022/11/15 08:57:17;;;;;;;54.33;27.83;;;;;;;-141.28;100.00;49288.13;5114996;28;20448;-75
2022/11/15 08:59:44;;;;;;;62.23;30.00;;;;;;;-141.28;100.00;49348.97;5114914;28;20503;-76
2022/11/15 09:02:13;;;;;;;64.00;30.33;;;;;;;-141.28;100.00;49294.03;5114477;28;20505;-77
2022/11/15 09:04:41;;;;;;;64.33;28.70;;;;;;;-141.28;100.00;49364.66;5114536;28;20994;-74
2022/11/15 09:07:10;;;;;;;60.27;30.77;;;;;;;-141.28;100.00;49372.50;5114029;28;20529;-77
2022/11/15 09:09:36;;;;;;;59.90;29.93;;;;;;;-141.28;100.00;49399.97;5094009;28;20454;-75
2022/11/15 09:12:06;;;;;;;62.63;31.10;;;;;;;-141.28;100.00;49378.41;5107744;28;20981;-75
2022/11/15 09:14:33;;;;;;;66.13;30.73;;;;;;;-141.28;100.00;49399.97;5114506;28;20500;-76
2022/11/15 09:17:00;;;;;;;63.77;30.63;;;;;;;-141.28;100.00;49399.97;5114525;28;20452;-76
2022/11/15 09:19:27;;;;;;;62.50;31.83;;;;;;;-141.28;100.00;49368.59;5113333;28;20480;-76
2022/11/15 09:21:54;;;;;;;57.87;28.40;;;;;;;-141.28;100.00;49388.22;5113706;28;20448;-74
2022/11/15 09:24:22;;;;;;;64.13;30.67;;;;;;;-141.28;100.00;49372.50;5114522;28;20449;-75
2022/11/15 09:26:51;;;;;;;60.23;31.90;;;;;;;-141.28;100.00;49352.88;5100352;28;20449;-74
2022/11/15 09:29:18;;;;;;;69.60;31.37;;;;;;;-141.28;100.00;49341.13;5113770;28;20947;-75
2022/11/15 09:31:45;;;;;;;70.07;32.93;;;;;;;-141.28;100.00;49356.81;5113174;28;20445;-75
2022/11/15 09:34:12;;;;;;;62.63;31.33;;;;;;;-141.28;100.00;49290.09;5113811;28;20449;-75
2022/11/15 09:36:39;;;;;;;74.70;33.97;;;;;;;-141.28;100.00;49386.25;5113797;28;20445;-74
2022/11/15 09:39:06;;;;;;;107.73;48.80;;;;;;;-141.28;100.00;49399.97;5113806;28;20530;-78
2022/11/15 09:42:10;;;;;;;94.40;43.20;;;;;;;-141.28;100.00;49396.06;5114107;28;20445;-76
2022/11/15 09:44:49;;;;;;;82.13;38.20;;;;;;;-141.28;100.00;49360.75;5088983;28;20445;-75
2022/11/15 09:47:38;;;;;;;78.60;37.07;;;;;;;-141.28;100.00;49335.22;5114159;28;20452;-75
2022/11/15 09:50:11;;;;;;;80.83;37.17;;;;;;;-141.28;100.00;49337.19;5112919;28;20441;-77
2022/11/15 09:52:42;;;;;;;92.67;39.47;;;;;;;-141.28;100.00;49364.66;5113315;28;20840;-77
2022/11/15 09:55:13;;;;;;;95.37;42.80;;;;;;;-141.28;100.00;49368.59;5113249;28;20429;-77
2022/11/15 09:57:52;;;;;;;91.07;41.37;;;;;;;-141.28;100.00;49370.53;5113606;28;20460;-76
2022/11/15 10:00:21;;;;;;;98.30;41.13;;;;;;;-141.28;100.00;49366.63;5113598;28;20575;-75
2022/11/15 10:03:02;;;;;;;97.03;40.33;;;;;;;-141.28;100.00;49372.50;5112754;28;20448;-75
2022/11/15 10:05:30;;;;;;;90.10;39.03;;;;;;;-141.28;100.00;49405.88;5113301;28;20456;-74
2022/11/15 10:08:03;;;;;;;90.97;40.67;;;;;;;-141.28;100.00;49423.53;5112552;28;20963;-78
2022/11/15 10:10:37;;;;;;;103.33;43.37;;;;;;;-141.28;100.00;49456.88;5116418;28;20453;-75
2022/11/15 10:13:05;;;;;;;90.80;42.37;;;;;;;-141.28;100.00;49490.25;5104257;28;20476;-79
2022/11/15 10:15:32;;;;;;;102.50;40.67;;;;;;;-141.28;100.00;49525.56;5112080;28;20453;-78
2022/11/15 10:18:14;;;;;;;94.60;39.33;;;;;;;-141.28;100.00;49588.34;5100899;28;20469;-75
2022/11/15 10:20:48;;;;;;;94.40;42.70;;;;;;;-141.28;100.00;49604.06;5113639;28;20495;-76
2022/11/15 10:23:18;;;;;;;102.50;43.30;;;;;;;-141.28;100.00;49645.28;5113009;28;20847;-77
2022/11/15 10:25:45;;;;;;;89.10;39.97;;;;;;;-141.28;100.00;49606.03;5112470;28;20460;-76
2022/11/15 10:28:17;;;;;;;96.37;41.30;;;;;;;-141.28;100.00;49556.97;5112647;28;20549;-76
2022/11/15 10:30:46;;;;;;;102.10;41.77;;;;;;;-141.28;100.00;49515.75;5112946;28;20642;-78
2022/11/15 10:33:27;;;;;;;98.13;41.23;;;;;;;-141.28;100.00;49631.53;5114361;28;20445;-74
2022/11/15 10:36:20;;;;;;;97.00;40.53;;;;;;;-141.28;100.00;49670.78;5100888;28;20449;-74
2022/11/15 10:38:57;;;;;;;92.50;41.20;;;;;;;-141.28;100.00;49598.16;5121866;28;20501;-74
2022/11/15 10:41:30;;;;;;;93.53;40.53;;;;;;;-141.28;100.00;49584.44;5108338;28;20460;-74
2022/11/15 10:44:25;;;;;;;82.67;37.47;;;;;;;-141.28;100.00;49570.69;5107839;28;20457;-76
2022/11/15 10:47:20;;;;;;;95.33;40.37;;;;;;;-141.28;100.00;49509.88;5118629;28;21019;-76
2022/11/15 10:49:58;;;;;;;93.70;41.40;;;;;;;-141.28;100.00;49480.44;5119833;28;20465;-76
2022/11/15 10:52:28;;;;;;;87.57;40.10;;;;;;;-141.28;100.00;49494.16;5116986;28;20824;-77
2022/11/15 10:55:02;;;;;;;90.73;39.37;;;;;;;-141.28;100.00;49511.84;5096947;28;20449;-74
2022/11/15 10:57:33;;;;;;;87.77;40.47;;;;;;;-141.28;100.00;49564.81;5113297;28;20521;-75
2022/11/15 11:00:28;;;;;;;84.53;39.53;;;;;;;-141.28;100.00;49555.00;5121295;28;20495;-76
2022/11/15 11:02:59;;;;;;;88.27;35.93;;;;;;;-141.28;100.00;49590.31;5119415;28;20452;-75
2022/11/15 11:05:29;;;;;;;85.17;38.47;;;;;;;-141.28;100.00;49637.41;5117923;28;20460;-76
2022/11/15 11:07:59;;;;;;;81.73;36.70;;;;;;;-141.28;100.00;49690.41;5115622;28;20449;-74
2022/11/15 11:10:25;;;;;;;81.80;38.03;;;;;;;-141.28;100.00;49639.38;5113436;28;20444;-78
2022/11/15 11:12:52;;;;;;;77.57;36.47;;;;;;;-141.28;100.00;49886.66;5111772;28;20513;-78